ENSH/SVJ METAR and TAF weather

Enter ICAO airport designator
Station Type Date Time Source
ENSH METAR 2022/12/05 12:50 UTC NOAA

ENSH 051250Z 27003KT 190V340 9999 VCSH FEW010 SCT030 BKN040 03/02 Q1008 RMK WIND 150FT 30003KT 260V330


Station Type Date Time Source
ENSH Decoded METAR 2022/12/05 12:50 UTC NOAA

Svolvaer / Helle, Norway (ENSH) 68-15N 014-40E 9M
Dec 05, 2022 - 07:50 AM EST / 2022.12.05 1250 UTC
Wind: from the W (270 degrees) at 3 MPH (3 KT) (direction variable):0
Visibility: greater than 7 mile(s):0
Sky conditions: mostly cloudy
Weather: showers in the vicinity
Temperature: 37 F (3 C)
Dew Point: 35 F (2 C)
Relative Humidity: 93%
Pressure (altimeter): 29.77 in. Hg (1008 hPa)
ob: ENSH 051250Z 27003KT 190V340 9999 VCSH FEW010 SCT030 BKN040 03/02 Q1008 RMK WIND 150FT 30003KT 260V330
cycle: 13

Station Type Date Time Source
ENSH TAF UTC NOAA

Error!

Example: see airport list